Mount Erie, IL (62446)

9:13 AM CST on December 08, 2016 (GMT -0600)
Parkersburg/Wynoose | | Change Station

Elev 418 ft 38.60 °N, 88.14 °W | Updated 6 seconds ago

Clear
Clear
26.5 °F
Feels Like 18 °F
N
8.0
Wind Variable Wind from West
Gusts 8.0 mph

Today
High -- | Low -- °F
--% Chance of Precip.
Yesterday
High -- | Low -- °F
Precip. -- in
Pressure 30.44 in
Visibility 10.0 miles
Clouds Clear
Windchill 18 °F
Dew Point 19 °F
Humidity 73%
Rainfall 0.00 in
Snow Depth Not available.
6:58 AM 4:31 PM
Waxing Gibbous, 64% visible
METAR KFWC 081455Z AUTO 26005KT 10SM CLR M03/M09 A3044 RMK AO1 T10351093
Pressure 30.44 in
Visibility 10.0 miles
Clouds Clear
Windchill 18 °F
Dew Point 19 °F
Humidity 73%
Rainfall 0.00 in
Snow Depth Not available.
6:58 AM 4:31 PM
Waxing Gibbous, 64% visible
METAR KFWC 081455Z AUTO 26005KT 10SM CLR M03/M09 A3044 RMK AO1 T10351093

10-Day Weather Forecast

Almanac

Astronomy

Dec. 08, 2016 Rise Set
Actual Time
Civil Twilight
Nautical Twilight
Astronomical Twilight
Moon
Length of Visible Light
Length of Day
Tomorrow will be .
, % of the Moon is Illuminated

Today's Extremes

State Highs State Lows

Community

WunderPhotos

Upload Photos

1,956,268 photos uploaded!

WunderBlog® & News

Nearby

Air Quality

  Air Quality AQ Index Pollutant
Not available.

Snow Depth

Station Depth Elevation

Earthquake Activity

City Distance Mag. Time & Date
Minimum magnitude displayed is 2.5.

Coastal Water Temperatures

Place Temperature

Stations

Nearby Weather Stations

Station Location Temp. Windchill Dew Point Humidity Wind Precip. Elev Updated Type
                   

Watches & Warnings

There are currently no watches in effect.